Pagina principale
METAR-TAF:

METAR-TAF

Aeroporti :

Aeroporto di Jizan-Re Abd Allah bin Abd al-Aziz

Jizan, Arabia Saudita

latitudine: 16-54N, longitudine: 042-35E, altezza: 6 m

Osservazione

Il bollettino è stato emesso 1 ora e 10 minuti fa, alle 18:00 UTC
Vento 6 kt da est/sud-est
Temperature 27°C
Umidità 79%
Pressione 1011 hPa
Visibilità 10 km o più
nessuna nube inferiore a 1500 m e nessun cumulonembo

METAR: OEGN 241800Z 12006KT CAVOK 27/23 Q1011 NOSIG

Ora: 22:10 (19:10 UTC)

Previsione

Il bollettino è stato emesso 8 ore e 10 minuti fa, alle 11:00 UTC
Previsione valida dal 24 alle 12 UTC al 25 alle 18 UTC
Vento 13 kt da sud-ovest
Visibilità: 6000 m
Nubi sparse ad un'altezza di 3000 ft
Evoluzione graduale
dal 24 alle 18 UTC al 24 alle 20 UTC
Vento 3 kt da direzioni variabili

TAF: OEGN 241100Z 2412/2518 22013KT 6000 SCT030 BECMG 2418/2420 VRB03KT

Osservazioni e previsioni meteorologiche di più di 4000 aeroporti (messaggi METAR e TAF).

Le stazioni disponibili sono rappresentate dai dischi gialli e rossi sulla carta.

Puntare il mouse per vedere il nome della stazione.

Clicca sopra per visualizzare le osservazioni e previsioni meteorologiche.

Per cambiare la mappa : fare clic sui pulsanti verdi con una croce nera per ingrandire, il pulsante verde con un trattino per diminuire, o sulla freccia verde per le mappe adiacenti.


METAR-TAF: